Time;durP1;ratioP1;P1;durP2;ratioP2;P2;SDS_P1;SDS_P2;PMS_P1;PMS_P2;Temp;Humidity;BMP_temperature;BMP_pressure;BME280_temperature;BME280_humidity;BME280_pressure;Samples;Min_cycle;Max_cycle;Signal;HPM_P1;HPM_P2
2021/07/17 00:02:05;;;;;;;11.10;9.07;;;;;;;;;;5056281;28;20060;-76
2021/07/17 00:04:31;;;;;;;13.65;9.57;;;;;;;;;;5058839;28;20036;-76
2021/07/17 00:06:57;;;;;;;13.45;9.20;;;;;;;;;;5053020;28;20036;-76
2021/07/17 00:09:25;;;;;;;11.32;9.45;;;;;;;;;;5056575;28;20478;-75
2021/07/17 00:11:51;;;;;;;11.63;9.25;;;;;;;;;;5056089;28;20063;-75
2021/07/17 00:14:17;;;;;;;14.38;9.80;;;;;;;;;;5059599;28;20052;-78
2021/07/17 00:16:43;;;;;;;13.57;9.88;;;;;;;;;;5064651;28;20039;-76
2021/07/17 00:19:09;;;;;;;13.97;9.87;;;;;;;;;;5057697;28;21376;-74
2021/07/17 00:21:36;;;;;;;13.05;9.57;;;;;;;;;;5057266;28;20032;-77
2021/07/17 00:24:02;;;;;;;12.85;9.48;;;;;;;;;;5059692;28;20045;-74
2021/07/17 00:26:28;;;;;;;12.50;9.67;;;;;;;;;;5054139;28;20036;-77
2021/07/17 00:28:55;;;;;;;12.20;9.87;;;;;;;;;;5059298;28;20028;-77
2021/07/17 00:31:21;;;;;;;;;;;;;;;;;;5062257;28;20032;-72
2021/07/17 00:33:47;;;;;;;12.60;9.65;;;;;;;;;;5052667;28;19913;-73
2021/07/17 00:36:13;;;;;;;12.23;9.85;;;;;;;;;;5061728;28;20715;-75
2021/07/17 00:38:39;;;;;;;15.90;9.60;;;;;;;;;;5064090;28;20725;-75
2021/07/17 00:41:05;;;;;;;12.50;9.30;;;;;;;;;;5062330;28;20036;-77
2021/07/17 00:43:31;;;;;;;13.65;9.57;;;;;;;;;;5062004;28;20040;-74
2021/07/17 00:45:57;;;;;;;14.07;10.30;;;;;;;;;;5064913;28;20037;-77
2021/07/17 00:48:23;;;;;;;12.05;9.75;;;;;;;;;;5052447;28;20496;-75
2021/07/17 00:50:50;;;;;;;16.45;10.20;;;;;;;;;;5055566;28;20041;-76
2021/07/17 00:53:16;;;;;;;11.38;9.45;;;;;;;;;;5054541;28;20041;-75
2021/07/17 00:55:45;;;;;;;12.80;9.68;;;;;;;;;;5057331;28;20115;-75
2021/07/17 00:58:13;;;;;;;12.93;9.75;;;;;;;;;;5057616;28;20025;-74
2021/07/17 01:00:39;;;;;;;13.00;9.75;;;;;;;;;;5053819;28;20028;-77
2021/07/17 01:03:07;;;;;;;13.83;10.07;;;;;;;;;;5055263;28;20032;-76
2021/07/17 01:05:33;;;;;;;12.63;9.88;;;;;;;;;;5050722;28;20372;-75
2021/07/17 01:07:59;;;;;;;13.43;10.43;;;;;;;;;;5055362;28;20044;-76
2021/07/17 01:10:25;;;;;;;13.20;9.27;;;;;;;;;;5051323;28;20037;-76
2021/07/17 01:12:52;;;;;;;17.47;10.23;;;;;;;;;;5054152;28;20051;-73
2021/07/17 01:15:21;;;;;;;14.05;9.80;;;;;;;;;;5054489;28;20020;-74
2021/07/17 01:17:47;;;;;;;12.70;8.93;;;;;;;;;;5053183;28;20550;-78
2021/07/17 01:20:18;;;;;;;15.15;9.95;;;;;;;;;;5051553;28;20394;-77
2021/07/17 01:22:44;;;;;;;13.35;10.32;;;;;;;;;;5053903;28;20029;-76
2021/07/17 01:25:17;;;;;;;14.50;10.07;;;;;;;;;;5049530;28;20060;-76
2021/07/17 01:27:43;;;;;;;14.63;9.82;;;;;;;;;;5059619;28;20059;-77
2021/07/17 01:30:14;;;;;;;14.30;9.70;;;;;;;;;;5055928;28;20025;-76
2021/07/17 01:32:40;;;;;;;12.95;9.82;;;;;;;;;;5061598;28;20067;-76
2021/07/17 01:35:07;;;;;;;11.50;9.60;;;;;;;;;;5057891;28;20037;-76
2021/07/17 01:37:33;;;;;;;13.25;9.93;;;;;;;;;;5058349;28;20033;-76
2021/07/17 01:40:03;;;;;;;12.80;9.30;;;;;;;;;;5062852;28;20033;-77
2021/07/17 01:42:29;;;;;;;15.10;10.10;;;;;;;;;;4702524;28;10001144;-78
2021/07/17 01:44:55;;;;;;;11.40;9.80;;;;;;;;;;5038698;28;20033;-75
2021/07/17 01:47:22;;;;;;;11.25;9.32;;;;;;;;;;5066306;28;20491;-76
2021/07/17 01:49:48;;;;;;;14.95;9.32;;;;;;;;;;5048906;28;20032;-76
2021/07/17 01:52:14;;;;;;;11.48;8.75;;;;;;;;;;5050876;28;20028;-74
2021/07/17 01:54:41;;;;;;;13.88;9.48;;;;;;;;;;5050745;28;20488;-74
2021/07/17 01:57:08;;;;;;;12.15;9.32;;;;;;;;;;5055099;28;20060;-76
2021/07/17 01:59:34;;;;;;;;;;;;;;;;;;5063402;28;20052;-77
2021/07/17 02:02:00;;;;;;;11.43;9.48;;;;;;;;;;5050718;28;20593;-76
2021/07/17 02:04:26;;;;;;;13.05;9.02;;;;;;;;;;5064781;28;21473;-76
2021/07/17 02:06:53;;;;;;;14.47;10.17;;;;;;;;;;5050586;28;20036;-76
2021/07/17 02:09:19;;;;;;;;;;;;;;;;;;5061913;28;20073;-75
2021/07/17 02:11:45;;;;;;;13.00;8.73;;;;;;;;;;5052617;28;19909;-72
2021/07/17 02:14:11;;;;;;;11.55;8.73;;;;;;;;;;5057304;28;20282;-75
2021/07/17 02:16:37;;;;;;;12.38;9.02;;;;;;;;;;5067301;28;20064;-72
2021/07/17 02:19:07;;;;;;;12.63;9.13;;;;;;;;;;5067300;28;20491;-76
2021/07/17 02:21:33;;;;;;;12.57;9.10;;;;;;;;;;5073328;28;20147;-76
2021/07/17 02:23:59;;;;;;;11.18;9.02;;;;;;;;;;5080486;28;20056;-77
2021/07/17 02:26:26;;;;;;;13.07;9.02;;;;;;;;;;5077326;28;20032;-75
2021/07/17 02:28:52;;;;;;;;;;;;;;;;;;5064764;28;20086;-75
2021/07/17 02:31:18;;;;;;;12.85;8.98;;;;;;;;;;5056083;28;19913;-76
2021/07/17 02:33:44;;;;;;;15.02;9.52;;;;;;;;;;5061811;28;20055;-75
2021/07/17 02:36:10;;;;;;;10.93;8.80;;;;;;;;;;5063948;28;20447;-73
2021/07/17 02:38:36;;;;;;;12.65;8.90;;;;;;;;;;5060295;28;20025;-72
2021/07/17 02:41:03;;;;;;;12.53;8.93;;;;;;;;;;5065693;28;20103;-74
2021/07/17 02:43:29;;;;;;;;;;;;;;;;;;5066429;28;20103;-76
2021/07/17 02:45:55;;;;;;;12.40;9.57;;;;;;;;;;5060888;28;19995;-78
2021/07/17 02:48:21;;;;;;;10.67;8.87;;;;;;;;;;5060926;28;20093;-75
2021/07/17 02:50:47;;;;;;;11.73;8.65;;;;;;;;;;5061124;28;20059;-76
2021/07/17 02:53:13;;;;;;;11.00;8.03;;;;;;;;;;5061225;28;20079;-77
2021/07/17 02:55:39;;;;;;;13.30;8.63;;;;;;;;;;5064913;28;20128;-76
2021/07/17 02:58:05;;;;;;;11.32;8.45;;;;;;;;;;5059648;28;20169;-72
2021/07/17 03:00:34;;;;;;;11.85;8.20;;;;;;;;;;5064073;28;20059;-76
2021/07/17 03:03:00;;;;;;;12.05;8.77;;;;;;;;;;5069161;28;20029;-76
2021/07/17 03:05:26;;;;;;;15.35;9.10;;;;;;;;;;5069189;28;20159;-77
2021/07/17 03:07:52;;;;;;;11.82;8.63;;;;;;;;;;5058014;28;20100;-76
2021/07/17 03:10:19;;;;;;;14.00;9.00;;;;;;;;;;5066735;28;20044;-75
2021/07/17 03:12:45;;;;;;;12.70;8.93;;;;;;;;;;5054647;28;20071;-75
2021/07/17 03:15:11;;;;;;;14.32;8.70;;;;;;;;;;5063456;28;20057;-76
2021/07/17 03:17:37;;;;;;;11.45;8.77;;;;;;;;;;5061801;28;20025;-75
2021/07/17 03:20:04;;;;;;;12.30;7.97;;;;;;;;;;5054737;28;20029;-75
2021/07/17 03:22:30;;;;;;;12.73;8.75;;;;;;;;;;5052760;28;20681;-75
2021/07/17 03:24:56;;;;;;;12.55;8.63;;;;;;;;;;5064430;28;20041;-75
2021/07/17 03:27:22;;;;;;;11.63;9.07;;;;;;;;;;5060762;28;20025;-74
2021/07/17 03:29:49;;;;;;;10.07;8.45;;;;;;;;;;5055679;28;20028;-75
2021/07/17 03:32:20;;;;;;;12.13;8.88;;;;;;;;;;5053192;28;20029;-77
2021/07/17 03:34:46;;;;;;;11.90;8.68;;;;;;;;;;5065734;28;20079;-76
2021/07/17 03:37:12;;;;;;;12.40;8.52;;;;;;;;;;5059346;28;20024;-77
2021/07/17 03:39:38;;;;;;;12.98;8.95;;;;;;;;;;5052532;28;20031;-75
2021/07/17 03:42:04;;;;;;;11.43;8.68;;;;;;;;;;5063694;28;20032;-76
2021/07/17 03:44:30;;;;;;;12.40;8.13;;;;;;;;;;5052055;28;20029;-76
2021/07/17 03:46:57;;;;;;;13.32;8.48;;;;;;;;;;5056891;28;20421;-76
2021/07/17 03:49:22;;;;;;;13.10;9.00;;;;;;;;;;5050856;28;20059;-75
2021/07/17 03:51:49;;;;;;;11.55;8.23;;;;;;;;;;5053203;28;20033;-75
2021/07/17 03:54:15;;;;;;;11.25;8.75;;;;;;;;;;5058411;28;20111;-74
2021/07/17 03:56:41;;;;;;;13.95;9.07;;;;;;;;;;5061011;28;20668;-75
2021/07/17 03:59:07;;;;;;;16.00;8.68;;;;;;;;;;5064059;28;20040;-76
2021/07/17 04:01:33;;;;;;;11.90;8.43;;;;;;;;;;5059253;28;20035;-75
2021/07/17 04:03:59;;;;;;;16.15;8.45;;;;;;;;;;5051827;28;20032;-77
2021/07/17 04:06:25;;;;;;;13.68;9.02;;;;;;;;;;5068141;28;20028;-76
2021/07/17 04:08:51;;;;;;;11.33;8.07;;;;;;;;;;5068606;28;20048;-74
2021/07/17 04:11:17;;;;;;;12.15;8.18;;;;;;;;;;5061985;28;20440;-77
2021/07/17 04:13:43;;;;;;;13.65;8.63;;;;;;;;;;5068148;28;20058;-74
2021/07/17 04:16:09;;;;;;;12.50;8.93;;;;;;;;;;5051256;28;20103;-75
2021/07/17 04:18:35;;;;;;;12.82;8.82;;;;;;;;;;5057753;28;20442;-76
2021/07/17 04:21:01;;;;;;;17.17;9.07;;;;;;;;;;5057572;28;20031;-74
2021/07/17 04:23:27;;;;;;;10.27;7.68;;;;;;;;;;5060530;28;20104;-77
2021/07/17 04:25:53;;;;;;;12.65;8.63;;;;;;;;;;5056885;28;20049;-75
2021/07/17 04:28:19;;;;;;;14.60;9.02;;;;;;;;;;5062597;28;20024;-74
2021/07/17 04:30:46;;;;;;;11.95;8.27;;;;;;;;;;5056075;28;20063;-74
2021/07/17 04:33:12;;;;;;;12.17;8.73;;;;;;;;;;5057450;28;20029;-75
2021/07/17 04:35:38;;;;;;;14.07;9.32;;;;;;;;;;5050570;28;20024;-74
2021/07/17 04:38:04;;;;;;;12.67;8.63;;;;;;;;;;5065222;28;20040;-74
2021/07/17 04:40:30;;;;;;;14.00;8.43;;;;;;;;;;5058266;28;20021;-75
2021/07/17 04:42:56;;;;;;;14.47;9.30;;;;;;;;;;5062707;28;20025;-74
2021/07/17 04:45:22;;;;;;;15.23;8.45;;;;;;;;;;5060735;28;20454;-74
2021/07/17 04:47:48;;;;;;;12.87;9.57;;;;;;;;;;5058229;28;20115;-75
2021/07/17 04:50:14;;;;;;;12.63;8.38;;;;;;;;;;5051697;28;20064;-74
2021/07/17 04:52:40;;;;;;;12.77;8.85;;;;;;;;;;5064403;28;20504;-75
2021/07/17 04:55:06;;;;;;;13.47;8.70;;;;;;;;;;5055114;28;20090;-75
2021/07/17 04:57:32;;;;;;;10.73;8.67;;;;;;;;;;5057478;28;20029;-76
2021/07/17 04:59:58;;;;;;;14.00;8.57;;;;;;;;;;5070998;28;20246;-75
2021/07/17 05:02:25;;;;;;;16.83;9.77;;;;;;;;;;5063508;28;20146;-74
2021/07/17 05:04:51;;;;;;;17.50;9.20;;;;;;;;;;5064524;28;20028;-75
2021/07/17 05:07:17;;;;;;;14.70;8.77;;;;;;;;;;5060545;28;20036;-75
2021/07/17 05:09:43;;;;;;;14.77;8.63;;;;;;;;;;5069821;28;20021;-76
2021/07/17 05:12:09;;;;;;;17.20;9.30;;;;;;;;;;5062408;28;20032;-75
2021/07/17 05:14:35;;;;;;;21.37;9.27;;;;;;;;;;5056962;28;20076;-75
2021/07/17 05:17:01;;;;;;;13.95;8.60;;;;;;;;;;5053657;28;20098;-74
2021/07/17 05:19:27;;;;;;;14.05;9.13;;;;;;;;;;5052017;28;20562;-75
2021/07/17 05:21:53;;;;;;;13.85;8.57;;;;;;;;;;5057581;28;20705;-76
2021/07/17 05:24:19;;;;;;;10.23;7.25;;;;;;;;;;5054928;28;20052;-76
2021/07/17 05:26:45;;;;;;;15.48;8.27;;;;;;;;;;5066698;28;20031;-76
2021/07/17 05:29:11;;;;;;;11.33;8.20;;;;;;;;;;5058385;28;20029;-76
2021/07/17 05:31:37;;;;;;;12.47;8.17;;;;;;;;;;5061229;28;20395;-74
2021/07/17 05:34:03;;;;;;;14.48;7.82;;;;;;;;;;5061705;28;20289;-77
2021/07/17 05:36:29;;;;;;;13.25;8.90;;;;;;;;;;5061718;28;20030;-76
2021/07/17 05:38:55;;;;;;;14.23;8.47;;;;;;;;;;5055018;28;20028;-77
2021/07/17 05:41:21;;;;;;;14.27;8.23;;;;;;;;;;5051387;28;20025;-76
2021/07/17 05:43:47;;;;;;;15.52;8.27;;;;;;;;;;5064021;28;20035;-75
2021/07/17 05:46:13;;;;;;;11.03;7.53;;;;;;;;;;5053619;28;20108;-77
2021/07/17 05:48:39;;;;;;;15.30;8.73;;;;;;;;;;5056204;28;20095;-77
2021/07/17 05:51:05;;;;;;;18.40;7.97;;;;;;;;;;5051298;28;20729;-76
2021/07/17 05:53:31;;;;;;;22.67;8.63;;;;;;;;;;5042683;28;20108;-76
2021/07/17 05:55:58;;;;;;;21.52;8.23;;;;;;;;;;5056056;28;20234;-76
2021/07/17 05:58:24;;;;;;;16.15;8.70;;;;;;;;;;5068226;28;20031;-75
2021/07/17 06:00:50;;;;;;;20.07;8.60;;;;;;;;;;5056611;28;21439;-78
2021/07/17 06:03:16;;;;;;;17.90;8.65;;;;;;;;;;5059063;28;20036;-75
2021/07/17 06:05:42;;;;;;;17.13;8.40;;;;;;;;;;5058460;28;20498;-75
2021/07/17 06:08:08;;;;;;;16.45;8.43;;;;;;;;;;5066114;28;20038;-75
2021/07/17 06:10:34;;;;;;;21.58;8.68;;;;;;;;;;5063537;28;20481;-74
2021/07/17 06:13:00;;;;;;;21.13;8.53;;;;;;;;;;5055487;28;20056;-75
2021/07/17 06:15:26;;;;;;;16.60;8.60;;;;;;;;;;5061765;28;20029;-74
2021/07/17 06:17:53;;;;;;;20.40;8.13;;;;;;;;;;5054425;28;20111;-75
2021/07/17 06:20:20;;;;;;;14.40;7.80;;;;;;;;;;5053576;28;20116;-74
2021/07/17 06:22:46;;;;;;;17.67;8.45;;;;;;;;;;5064446;28;20082;-75
2021/07/17 06:25:13;;;;;;;12.77;8.00;;;;;;;;;;5063118;28;20444;-77
2021/07/17 06:27:39;;;;;;;;;;;;;;;;;;5057657;28;20438;-75
2021/07/17 06:30:06;;;;;;;16.83;8.18;;;;;;;;;;5067535;28;19999;-76
2021/07/17 06:32:32;;;;;;;18.65;9.00;;;;;;;;;;5069613;28;20024;-73
2021/07/17 06:34:58;;;;;;;18.88;8.63;;;;;;;;;;5063468;28;20028;-74
2021/07/17 06:37:24;;;;;;;18.10;8.25;;;;;;;;;;5063363;28;20024;-76
2021/07/17 06:39:50;;;;;;;14.33;8.27;;;;;;;;;;5062526;28;20025;-75
2021/07/17 06:42:16;;;;;;;18.35;8.10;;;;;;;;;;5061988;28;20539;-76
2021/07/17 06:44:42;;;;;;;18.70;8.80;;;;;;;;;;5051908;28;20029;-75
2021/07/17 06:47:09;;;;;;;24.63;9.57;;;;;;;;;;5069135;28;20020;-78
2021/07/17 06:49:35;;;;;;;;;;;;;;;;;;5055808;28;20032;-76
2021/07/17 06:52:01;;;;;;;22.13;9.88;;;;;;;;;;5052396;28;20473;-77
2021/07/17 06:54:27;;;;;;;21.40;10.43;;;;;;;;;;5055529;28;20083;-75
2021/07/17 06:56:53;;;;;;;22.38;10.77;;;;;;;;;;5061990;28;20032;-81
2021/07/17 06:59:19;;;;;;;27.55;11.15;;;;;;;;;;5065158;28;20477;-76
2021/07/17 07:01:46;;;;;;;20.67;10.88;;;;;;;;;;5053365;28;20025;-74
2021/07/17 07:04:12;;;;;;;23.58;12.63;;;;;;;;;;5052914;28;20106;-76
2021/07/17 07:06:38;;;;;;;20.45;11.55;;;;;;;;;;5069005;28;20089;-73
2021/07/17 07:09:04;;;;;;;23.25;12.73;;;;;;;;;;5060662;28;20021;-75
2021/07/17 07:11:30;;;;;;;26.27;13.20;;;;;;;;;;5044699;28;20036;-75
2021/07/17 07:13:56;;;;;;;21.80;13.35;;;;;;;;;;5041302;28;20140;-78
2021/07/17 07:16:23;;;;;;;24.05;13.73;;;;;;;;;;5052327;28;20085;-76
2021/07/17 07:18:49;;;;;;;;;;;;;;;;;;4351073;28;10000742;-75
2021/07/17 07:21:15;;;;;;;22.67;13.23;;;;;;;;;;5037433;28;20050;-75
2021/07/17 07:23:41;;;;;;;27.90;14.33;;;;;;;;;;5038647;28;20037;-76
2021/07/17 07:26:07;;;;;;;24.40;12.63;;;;;;;;;;5037735;28;20047;-76
2021/07/17 07:28:33;;;;;;;20.50;11.90;;;;;;;;;;5038027;28;20037;-75
2021/07/17 07:30:59;;;;;;;26.20;12.07;;;;;;;;;;5036208;28;20103;-75
2021/07/17 07:33:26;;;;;;;21.98;12.45;;;;;;;;;;5038409;28;20029;-77
2021/07/17 07:35:52;;;;;;;;;;;;;;;;;;5053921;28;20048;-75
2021/07/17 07:38:18;;;;;;;30.20;13.25;;;;;;;;;;5047513;28;19913;-76
2021/07/17 07:40:44;;;;;;;30.00;13.38;;;;;;;;;;5037325;28;20033;-75
2021/07/17 07:43:12;;;;;;;22.75;13.23;;;;;;;;;;5036032;28;20039;-75
2021/07/17 07:45:38;;;;;;;24.77;13.10;;;;;;;;;;5035550;28;20500;-73
2021/07/17 07:48:05;;;;;;;21.50;12.65;;;;;;;;;;5040413;28;20043;-74
2021/07/17 07:50:31;;;;;;;21.33;12.85;;;;;;;;;;5045532;28;20478;-74
2021/07/17 07:52:59;;;;;;;26.92;12.88;;;;;;;;;;5035824;28;21462;-75
2021/07/17 07:55:25;;;;;;;23.13;13.93;;;;;;;;;;5036011;28;20017;-76
2021/07/17 07:57:52;;;;;;;27.47;14.20;;;;;;;;;;5033964;28;20036;-75
2021/07/17 08:00:18;;;;;;;26.15;13.98;;;;;;;;;;5042513;28;20030;-76
2021/07/17 08:02:44;;;;;;;24.63;14.00;;;;;;;;;;5038771;28;20059;-74
2021/07/17 08:05:11;;;;;;;24.65;13.48;;;;;;;;;;5050979;28;20028;-74
2021/07/17 08:07:37;;;;;;;26.92;14.32;;;;;;;;;;5053997;28;20032;-75
2021/07/17 08:10:03;;;;;;;24.57;14.30;;;;;;;;;;5048667;28;20017;-75
2021/07/17 08:12:30;;;;;;;25.02;13.73;;;;;;;;;;5053173;28;20037;-75
2021/07/17 08:14:56;;;;;;;22.80;14.43;;;;;;;;;;5053428;28;20032;-72
2021/07/17 08:17:22;;;;;;;20.90;13.25;;;;;;;;;;5050632;28;20056;-74
2021/07/17 08:19:48;;;;;;;19.60;12.50;;;;;;;;;;5050317;28;20041;-76
2021/07/17 08:22:14;;;;;;;38.40;17.42;;;;;;;;;;5046541;28;20262;-78
2021/07/17 08:24:40;;;;;;;47.13;21.57;;;;;;;;;;5049945;28;20032;-77
2021/07/17 08:27:06;;;;;;;36.92;17.92;;;;;;;;;;5061186;28;20531;-78
2021/07/17 08:29:32;;;;;;;40.72;18.08;;;;;;;;;;5065484;28;20035;-77
2021/07/17 08:31:58;;;;;;;34.77;15.87;;;;;;;;;;5057682;28;20029;-76
2021/07/17 08:34:24;;;;;;;34.30;18.02;;;;;;;;;;5059542;28;20108;-78
2021/07/17 08:36:50;;;;;;;39.60;16.80;;;;;;;;;;5053022;28;20025;-76
2021/07/17 08:39:16;;;;;;;37.78;16.80;;;;;;;;;;5068378;28;20059;-78
2021/07/17 08:41:48;;;;;;;28.70;14.47;;;;;;;;;;5055529;28;20585;-77
2021/07/17 08:44:15;;;;;;;31.10;15.18;;;;;;;;;;5050229;28;20454;-78
2021/07/17 08:46:41;;;;;;;34.55;17.17;;;;;;;;;;5064839;28;20033;-79
2021/07/17 08:49:07;;;;;;;34.15;16.60;;;;;;;;;;5063482;28;20708;-78
2021/07/17 08:51:33;;;;;;;31.70;16.13;;;;;;;;;;5063909;28;20108;-77
2021/07/17 08:54:00;;;;;;;46.90;19.50;;;;;;;;;;5054694;28;20134;-78
2021/07/17 08:56:26;;;;;;;32.70;16.88;;;;;;;;;;5069492;28;20043;-78
2021/07/17 08:58:52;;;;;;;27.80;15.15;;;;;;;;;;5054896;28;20033;-79
2021/07/17 09:01:18;;;;;;;32.22;15.30;;;;;;;;;;5049704;28;20063;-77
2021/07/17 09:03:46;;;;;;;30.67;15.40;;;;;;;;;;5052325;28;20025;-77
2021/07/17 09:06:13;;;;;;;33.75;16.33;;;;;;;;;;5053292;28;20036;-78
2021/07/17 09:08:39;;;;;;;27.90;15.25;;;;;;;;;;5041136;28;20490;-77
2021/07/17 09:11:05;;;;;;;33.73;16.87;;;;;;;;;;5034222;28;20030;-78
2021/07/17 09:13:32;;;;;;;26.85;16.00;;;;;;;;;;5042647;28;20028;-78
2021/07/17 09:16:00;;;;;;;27.17;13.43;;;;;;;;;;5055537;28;20071;-77
2021/07/17 09:18:29;;;;;;;22.27;12.00;;;;;;;;;;5055850;28;20028;-79
2021/07/17 09:20:55;;;;;;;17.38;12.05;;;;;;;;;;5066877;28;20475;-81
2021/07/17 09:23:23;;;;;;;19.07;11.10;;;;;;;;;;5043221;28;20382;-77
2021/07/17 09:25:50;;;;;;;17.02;11.10;;;;;;;;;;5047142;28;20749;-77
2021/07/17 09:28:16;;;;;;;;;;;;;;;;;;5065653;28;20039;-79
2021/07/17 09:30:42;;;;;;;14.55;10.35;;;;;;;;;;5075742;28;19905;-79
2021/07/17 09:33:08;;;;;;;17.67;10.80;;;;;;;;;;5067563;28;20375;-79
2021/07/17 09:35:37;;;;;;;16.30;10.43;;;;;;;;;;5056126;28;20053;-80
2021/07/17 09:38:06;;;;;;;18.00;11.43;;;;;;;;;;5063499;28;20385;-80
2021/07/17 09:40:45;;;;;;;15.25;11.32;;;;;;;;;;5064350;28;20032;-80
2021/07/17 09:43:11;;;;;;;19.40;11.40;;;;;;;;;;5069512;28;20366;-76
2021/07/17 09:45:41;;;;;;;20.50;12.30;;;;;;;;;;5067271;28;20025;-76
2021/07/17 09:48:20;;;;;;;21.05;12.23;;;;;;;;;;5065113;28;20024;-75
2021/07/17 09:50:46;;;;;;;20.70;11.70;;;;;;;;;;5048425;28;20036;-75
2021/07/17 09:53:12;;;;;;;18.17;12.10;;;;;;;;;;5047883;28;20036;-75
2021/07/17 09:55:38;;;;;;;18.93;12.60;;;;;;;;;;5066679;28;20054;-75
2021/07/17 09:58:13;;;;;;;23.83;13.70;;;;;;;;;;5061656;28;20056;-75
2021/07/17 10:00:39;;;;;;;23.45;14.00;;;;;;;;;;5051476;28;20473;-75
2021/07/17 10:03:14;;;;;;;23.60;14.93;;;;;;;;;;4699815;28;10001006;-77
2021/07/17 10:05:41;;;;;;;20.15;14.43;;;;;;;;;;5053365;28;20029;-75
2021/07/17 10:08:14;;;;;;;23.88;14.75;;;;;;;;;;5070475;28;20586;-76
2021/07/17 10:10:44;;;;;;;21.52;13.77;;;;;;;;;;5060782;28;20045;-76
2021/07/17 10:13:10;;;;;;;22.98;13.95;;;;;;;;;;5066818;28;20499;-76
2021/07/17 10:15:36;;;;;;;20.35;12.77;;;;;;;;;;5070715;28;20052;-79
2021/07/17 10:18:24;;;;;;;19.05;12.40;;;;;;;;;;5075533;28;20028;-76
2021/07/17 10:20:51;;;;;;;17.52;12.68;;;;;;;;;;5076269;28;20108;-76
2021/07/17 10:23:19;;;;;;;;;;;;;;;;;;5077214;28;20056;-74
2021/07/17 10:25:48;;;;;;;20.20;12.82;;;;;;;;;;5067290;28;19916;-75
2021/07/17 10:28:14;;;;;;;19.88;12.43;;;;;;;;;;5055992;28;20107;-77
2021/07/17 10:30:40;;;;;;;20.00;13.13;;;;;;;;;;5054300;28;20689;-77
2021/07/17 10:33:06;;;;;;;17.95;13.13;;;;;;;;;;5043575;28;20298;-76
2021/07/17 10:35:34;;;;;;;22.13;12.97;;;;;;;;;;5053898;28;20028;-75
2021/07/17 10:38:04;;;;;;;23.75;12.65;;;;;;;;;;5069748;28;20416;-75
2021/07/17 10:40:32;;;;;;;18.95;11.85;;;;;;;;;;5067073;28;20108;-76
2021/07/17 10:42:59;;;;;;;18.98;11.50;;;;;;;;;;5052248;28;20025;-76
2021/07/17 10:45:35;;;;;;;19.10;12.10;;;;;;;;;;5055978;28;20033;-75
2021/07/17 10:48:01;;;;;;;16.10;11.68;;;;;;;;;;5057434;28;20025;-75
2021/07/17 10:50:36;;;;;;;14.98;12.00;;;;;;;;;;5062127;28;20041;-73
2021/07/17 10:53:02;;;;;;;17.38;11.77;;;;;;;;;;5061006;28;20028;-76
2021/07/17 10:55:32;;;;;;;15.38;11.05;;;;;;;;;;5064281;28;20066;-75
2021/07/17 10:58:00;;;;;;;15.20;11.30;;;;;;;;;;5060545;28;20055;-76
2021/07/17 11:00:42;;;;;;;16.95;11.18;;;;;;;;;;5060127;28;20021;-76
2021/07/17 11:03:20;;;;;;;15.57;11.25;;;;;;;;;;5060091;28;20120;-76
2021/07/17 11:05:46;;;;;;;13.05;10.95;;;;;;;;;;5064587;28;20044;-75
2021/07/17 11:08:31;;;;;;;18.30;12.13;;;;;;;;;;5067613;28;20590;-75
2021/07/17 11:10:58;;;;;;;18.30;11.32;;;;;;;;;;5034118;28;20033;-75
2021/07/17 11:13:31;;;;;;;18.02;11.52;;;;;;;;;;5048974;28;20079;-75
2021/07/17 11:15:57;;;;;;;16.40;10.95;;;;;;;;;;5053917;28;20033;-75
2021/07/17 11:18:26;;;;;;;15.40;10.85;;;;;;;;;;5050243;28;20529;-75
2021/07/17 11:20:58;;;;;;;18.17;11.55;;;;;;;;;;5052952;28;20035;-76
2021/07/17 11:23:30;;;;;;;16.92;11.73;;;;;;;;;;5040124;28;20090;-77
2021/07/17 11:25:59;;;;;;;18.08;11.23;;;;;;;;;;5039971;28;20066;-80
2021/07/17 11:28:43;;;;;;;18.50;11.82;;;;;;;;;;5044898;28;20040;-80
2021/07/17 11:31:31;;;;;;;18.55;11.57;;;;;;;;;;5049162;28;20033;-79
2021/07/17 11:34:14;;;;;;;16.33;12.68;;;;;;;;;;5048142;28;20036;-81
2021/07/17 11:36:44;;;;;;;17.50;12.93;;;;;;;;;;5048360;28;20018;-77
2021/07/17 11:39:11;;;;;;;19.23;12.75;;;;;;;;;;5042130;28;20028;-79
2021/07/17 11:41:39;;;;;;;22.02;13.50;;;;;;;;;;5051033;28;20163;-77
2021/07/17 11:44:06;;;;;;;29.85;15.63;;;;;;;;;;4348416;28;10000248;-79
2021/07/17 11:46:32;;;;;;;26.30;16.45;;;;;;;;;;5060882;28;20044;-78
2021/07/17 11:49:02;;;;;;;30.58;18.00;;;;;;;;;;5040097;28;20033;-79
2021/07/17 11:51:28;;;;;;;27.67;16.40;;;;;;;;;;5040181;28;20025;-77
2021/07/17 11:53:57;;;;;;;41.20;18.90;;;;;;;;;;5037385;28;20119;-80
2021/07/17 11:56:23;;;;;;;33.65;18.67;;;;;;;;;;5038830;28;20124;-78
2021/07/17 11:58:49;;;;;;;30.25;18.55;;;;;;;;;;5038252;28;20030;-77
2021/07/17 12:01:17;;;;;;;32.95;18.50;;;;;;;;;;5036406;28;20429;-78
2021/07/17 12:04:04;;;;;;;32.35;18.98;;;;;;;;;;5040166;28;20028;-79
2021/07/17 12:06:32;;;;;;;29.92;19.33;;;;;;;;;;5035515;28;20079;-78
2021/07/17 12:09:10;;;;;;;28.80;17.58;;;;;;;;;;5038191;28;20025;-77
2021/07/17 12:11:36;;;;;;;27.00;17.70;;;;;;;;;;5039111;28;20025;-77
2021/07/17 12:14:21;;;;;;;22.67;17.00;;;;;;;;;;5036565;28;20059;-74
2021/07/17 12:16:47;;;;;;;24.27;16.92;;;;;;;;;;5038107;28;20104;-77
2021/07/17 12:19:19;;;;;;;22.53;17.07;;;;;;;;;;5038329;28;20029;-76
2021/07/17 12:21:45;;;;;;;26.15;16.35;;;;;;;;;;5040960;28;20887;-77
2021/07/17 12:24:11;;;;;;;23.48;17.23;;;;;;;;;;5038644;28;20052;-76
2021/07/17 12:26:37;;;;;;;25.35;16.35;;;;;;;;;;5042137;28;20086;-79
2021/07/17 12:29:04;;;;;;;23.57;16.20;;;;;;;;;;5038780;28;20615;-77
2021/07/17 12:31:30;;;;;;;22.33;16.23;;;;;;;;;;5037712;28;20039;-76
2021/07/17 12:33:56;;;;;;;23.00;16.17;;;;;;;;;;5037123;28;20064;-76
2021/07/17 12:36:29;;;;;;;24.00;15.63;;;;;;;;;;5038913;28;20667;-76
2021/07/17 12:38:56;;;;;;;25.88;15.55;;;;;;;;;;5032123;28;20033;-76
2021/07/17 12:41:22;;;;;;;22.25;15.93;;;;;;;;;;5042766;28;20474;-74
2021/07/17 12:43:49;;;;;;;20.70;15.50;;;;;;;;;;5042532;28;20098;-76
2021/07/17 12:46:21;;;;;;;21.77;15.77;;;;;;;;;;5052020;28;20037;-76
2021/07/17 12:48:50;;;;;;;19.27;15.15;;;;;;;;;;5045867;28;20084;-76
2021/07/17 12:51:23;;;;;;;19.80;15.25;;;;;;;;;;5034952;28;20039;-75
2021/07/17 12:53:50;;;;;;;19.60;14.45;;;;;;;;;;5034881;28;20521;-79
2021/07/17 12:56:16;;;;;;;;;;;;;;;;;;5036169;28;20398;-79
2021/07/17 12:58:43;;;;;;;20.98;15.90;;;;;;;;;;5033342;28;19917;-80
2021/07/17 13:01:11;;;;;;;18.20;14.70;;;;;;;;;;5036523;28;20025;-80
2021/07/17 13:03:38;;;;;;;21.63;15.60;;;;;;;;;;5037782;28;20040;-78
2021/07/17 13:06:04;;;;;;;18.48;14.75;;;;;;;;;;5036988;28;20533;-76
2021/07/17 13:08:34;;;;;;;17.57;14.07;;;;;;;;;;5038870;28;20024;-77
2021/07/17 13:11:00;;;;;;;19.67;14.63;;;;;;;;;;5035732;28;20057;-79
2021/07/17 13:13:27;;;;;;;19.67;14.82;;;;;;;;;;5036348;28;20029;-79
2021/07/17 13:15:55;;;;;;;21.90;14.68;;;;;;;;;;5037660;28;20049;-78
2021/07/17 13:18:23;;;;;;;22.52;15.98;;;;;;;;;;5036130;28;20037;-79
2021/07/17 13:21:04;;;;;;;17.58;13.95;;;;;;;;;;5038070;28;20101;-77
2021/07/17 13:23:47;;;;;;;16.77;13.95;;;;;;;;;;5038559;28;20059;-81
2021/07/17 13:26:17;;;;;;;17.70;13.90;;;;;;;;;;5038618;28;20502;-78
2021/07/17 13:28:43;;;;;;;18.35;14.35;;;;;;;;;;5036147;28;20056;-80
2021/07/17 13:31:20;;;;;;;19.40;14.23;;;;;;;;;;5035129;28;20112;-80
2021/07/17 13:33:46;;;;;;;18.95;13.63;;;;;;;;;;5039764;28;20072;-78
2021/07/17 13:36:12;;;;;;;18.30;13.57;;;;;;;;;;5040146;28;20021;-77
2021/07/17 13:38:38;;;;;;;17.60;13.10;;;;;;;;;;5038371;28;20039;-76
2021/07/17 13:41:08;;;;;;;16.23;13.67;;;;;;;;;;5035868;28;20037;-75
2021/07/17 13:43:34;;;;;;;16.20;13.20;;;;;;;;;;5037316;28;20033;-78
2021/07/17 13:46:01;;;;;;;22.23;14.10;;;;;;;;;;5034312;28;20029;-77
2021/07/17 13:48:27;;;;;;;20.88;14.23;;;;;;;;;;5037496;28;20030;-77
2021/07/17 13:51:03;;;;;;;18.03;14.03;;;;;;;;;;5040390;28;20091;-77
2021/07/17 13:53:29;;;;;;;18.90;13.50;;;;;;;;;;5042649;28;20061;-77
2021/07/17 13:56:04;;;;;;;18.52;13.25;;;;;;;;;;5037296;28;20233;-76
2021/07/17 13:58:30;;;;;;;16.95;13.30;;;;;;;;;;5041750;28;20033;-76
2021/07/17 14:00:57;;;;;;;16.60;12.70;;;;;;;;;;5040447;28;20471;-77
2021/07/17 14:03:24;;;;;;;16.88;13.25;;;;;;;;;;5038496;28;20037;-77
2021/07/17 14:05:54;;;;;;;20.58;13.77;;;;;;;;;;5038412;28;20036;-78
2021/07/17 14:08:20;;;;;;;16.80;13.38;;;;;;;;;;5035063;28;20040;-77
2021/07/17 14:10:46;;;;;;;15.25;13.05;;;;;;;;;;5036630;28;20037;-78
2021/07/17 14:13:13;;;;;;;19.98;13.40;;;;;;;;;;5039476;28;20029;-75
2021/07/17 14:15:40;;;;;;;20.20;14.25;;;;;;;;;;5042507;28;20028;-75
2021/07/17 14:18:06;;;;;;;18.48;12.88;;;;;;;;;;5039241;28;20027;-76
2021/07/17 14:20:32;;;;;;;16.50;12.77;;;;;;;;;;5040282;28;20021;-78
2021/07/17 14:22:59;;;;;;;16.50;13.10;;;;;;;;;;5041201;28;20021;-75
2021/07/17 14:25:25;;;;;;;19.15;13.38;;;;;;;;;;5041348;28;20051;-78
2021/07/17 14:27:51;;;;;;;15.02;12.43;;;;;;;;;;5040984;28;20029;-74